Aviation Digital Data Service (ADDS)

Output produced by METARs form (1956 UTC 08 February 2023)
found at http://aviationweather.gov/metar/data/
 
METAR text: KHOP 081944Z AUTO 11004KT 10SM BKN009 14/13 A3009 RMK AO2 DZB29E44 SLP192
Conditions at: KHOP (HOPKINSVILLE , KY, US) observed 1944 UTC 08 February 2023
Temperature: 14.0°C (57°F)
Dewpoint: 13.0°C (55°F) [RH = 94%]
Pressure (altimeter): 30.09 inches Hg (1019.0 mb)
[Sea-level pressure: 1019.2 mb]
Winds: from the ESE (110 degrees) at 5 MPH (4 knots; 2.1 m/s)
Visibility: 10 or more miles (16+ km)
Ceiling: 900 feet AGL
Clouds: broken clouds at 900 feet AGL
Weather: automated observation with no human augmentation;
there may or may not be significant weather present at this time

METAR text: KHOP 081929Z AUTO 10008KT 10SM -DZ BKN008 14/13 A3009 RMK AO2 DZB29 BKN V OVC PRESFR SLP192
Conditions at: KHOP (HOPKINSVILLE , KY, US) observed 1929 UTC 08 February 2023
Temperature: 14.0°C (57°F)
Dewpoint: 13.0°C (55°F) [RH = 94%]
Pressure (altimeter): 30.09 inches Hg (1019.0 mb)
[Sea-level pressure: 1019.2 mb]
Winds: from the E (100 degrees) at 9 MPH (8 knots; 4.1 m/s)
Visibility: 10 or more miles (16+ km)
Ceiling: 800 feet AGL
Clouds: broken clouds at 800 feet AGL
Weather: -DZ  (light drizzle)

METAR text: KHOP 081910Z AUTO 10007KT 10SM OVC008 14/13 A3011 RMK AO2 OVC V BKN PRESFR SLP198
Conditions at: KHOP (HOPKINSVILLE , KY, US) observed 1910 UTC 08 February 2023
Temperature: 14.0°C (57°F)
Dewpoint: 13.0°C (55°F) [RH = 94%]
Pressure (altimeter): 30.11 inches Hg (1019.7 mb)
[Sea-level pressure: 1019.8 mb]
Winds: from the E (100 degrees) at 8 MPH (7 knots; 3.6 m/s)
Visibility: 10 or more miles (16+ km)
Ceiling: 800 feet AGL
Clouds: overcast cloud deck at 800 feet AGL
Weather: automated observation with no human augmentation;
there may or may not be significant weather present at this time

METAR text: KHOP 081855Z AUTO 10005KT 8SM OVC007 13/13 A3013 RMK AO2 SLP205 T01290127
Conditions at: KHOP (HOPKINSVILLE , KY, US) observed 1855 UTC 08 February 2023
Temperature: 12.9°C (55°F)
Dewpoint: 12.7°C (55°F) [RH = 99%]
Pressure (altimeter): 30.13 inches Hg (1020.4 mb)
[Sea-level pressure: 1020.5 mb]
Winds: from the E (100 degrees) at 6 MPH (5 knots; 2.6 m/s)
Visibility: 8 miles (13 km)
Ceiling: 700 feet AGL
Clouds: overcast cloud deck at 700 feet AGL
Weather: automated observation with no human augmentation;
there may or may not be significant weather present at this time

METAR text: KHOP 081810Z AUTO 08004KT 8SM OVC006 12/12 A3016 RMK AO2 SLP215
Conditions at: KHOP (HOPKINSVILLE , KY, US) observed 1810 UTC 08 February 2023
Temperature: 12.0°C (54°F)
Dewpoint: 12.0°C (54°F) [RH = 100%]
Pressure (altimeter): 30.16 inches Hg (1021.4 mb)
[Sea-level pressure: 1021.5 mb]
Winds: from the E (80 degrees) at 5 MPH (4 knots; 2.1 m/s)
Visibility: 8 miles (13 km)
Ceiling: 600 feet AGL
Clouds: overcast cloud deck at 600 feet AGL
Weather: automated observation with no human augmentation;
there may or may not be significant weather present at this time

Forecast for: AMD
Text: TAF AMD KHOP 081725Z 0817/0922 VRB06KT 8000 BR OVC007 QNH3017INS
Forecast period: 1700 to 2100 UTC 08 February 2023
Forecast type: FROM: standard forecast or significant change
Winds: variable direction winds at 7 MPH (6 knots; 3.1 m/s)
Visibility: 5 miles (8 km)
Ceiling: 700 feet AGL
Clouds: overcast cloud deck at 700 feet AGL
Weather: BR  (mist)
Text: TEMPO 0817/0822 2400 BR OVC005
Forecast period: 1700 to 2200 UTC 08 February 2023
Forecast type: TEMPORARY: The following changes expected for less than half the time period
Visibility: 1.49 miles (2.40 km)
Ceiling: 500 feet AGL
Clouds: overcast cloud deck at 500 feet AGL
Weather: BR  (mist)
Text: BECMG 0821/0822 13007KT 8000 -SHRA OVC010 WS020/20045KT QNH3012INS
Forecast period: 2100 UTC 08 February 2023 to 0500 UTC 09 February 2023
Forecast type: BECOMING: Conditions expected to become as follows by 2200 UTC 08 February 2023
Winds: from the SE (130 degrees) at 8 MPH (7 knots; 3.6 m/s)
Visibility: 5 miles (8 km)
Ceiling: 1000 feet AGL
Clouds: overcast cloud deck at 1000 feet AGL
Wind Shear: at 2000 feet ( 610 m) AGL, from the SSW (200 degrees) at 52 MPH (45 knots; 23.4 m/s)
Weather: -SHRA  (light rain showers)
Text: BECMG 0905/0906 22025G35KT 8000 -SHRA OVC010 580006 QNH2974INS
Forecast period: 0500 to 1400 UTC 09 February 2023
Forecast type: BECOMING: Conditions expected to become as follows by 0600 UTC 09 February 2023
Winds: from the SW (220 degrees) at 29 MPH (25 knots; 12.9 m/s)
gusting to 40 MPH (35 knots; 18.0 m/s)
Visibility: 5 miles (8 km)
Ceiling: 1000 feet AGL
Clouds: overcast cloud deck at 1000 feet AGL
Weather: -SHRA  (light rain showers)
Text: BECMG 0914/0915 22025G35KT 9999 NSW BKN020 580006 QNH2982INS
Forecast period: 1400 to 2000 UTC 09 February 2023
Forecast type: BECOMING: Conditions expected to become as follows by 1500 UTC 09 February 2023
Winds: from the SW (220 degrees) at 29 MPH (25 knots; 12.9 m/s)
gusting to 40 MPH (35 knots; 18.0 m/s)
Visibility: 6 or more miles (10+ km)
Ceiling: 2000 feet AGL
Clouds: broken clouds at 2000 feet AGL
Weather: NSW  (no significant weather)
Text: BECMG 0920/0921 29009KT 9999 BKN020 QNH3010INS TX17/0821Z TN10/0910Z
Forecast period: 2000 to 2200 UTC 09 February 2023
Forecast type: BECOMING: Conditions expected to become as follows by 2100 UTC 09 February 2023
Winds: from the WNW (290 degrees) at 10 MPH (9 knots; 4.6 m/s)
Visibility: 6 or more miles (10+ km)
Ceiling: 2000 feet AGL
Clouds: broken clouds at 2000 feet AGL
Weather: NSW  (no significant weather)